createdAt,value
2022-09-12T00:00:28.626Z,30.58
2022-09-12T00:02:30.167Z,29.80
2022-09-12T00:04:31.699Z,30.15
2022-09-12T00:06:35.529Z,30.73
2022-09-12T00:08:37.168Z,29.92
2022-09-12T00:10:43.861Z,31.13
2022-09-12T00:12:45.430Z,31.95
2022-09-12T00:14:46.936Z,31.48
2022-09-12T00:16:48.648Z,31.50
2022-09-12T00:18:50.685Z,32.65
2022-09-12T00:20:52.169Z,32.78
2022-09-12T00:22:53.727Z,32.63
2022-09-12T00:24:55.382Z,31.83
2022-09-12T00:26:56.900Z,30.98
2022-09-12T00:28:58.504Z,31.80
2022-09-12T00:31:00.195Z,31.45
2022-09-12T00:33:01.711Z,33.47
2022-09-12T00:35:03.401Z,33.38
2022-09-12T00:37:04.968Z,32.58
2022-09-12T00:39:07.657Z,32.65
2022-09-12T00:41:21.585Z,32.55
2022-09-12T00:43:39.552Z,32.70
2022-09-12T00:45:42.632Z,31.58
2022-09-12T00:47:44.572Z,31.48
2022-09-12T00:49:56.691Z,31.50
2022-09-12T00:52:01.172Z,30.88
2022-09-12T00:54:06.779Z,32.13
2022-09-12T00:56:08.295Z,33.28
2022-09-12T00:58:16.779Z,32.40
2022-09-12T01:00:21.388Z,31.80
2022-09-12T01:02:23.278Z,32.13
2022-09-12T01:04:26.623Z,33.60
2022-09-12T01:06:32.605Z,32.80
2022-09-12T01:08:37.396Z,32.72
2022-09-12T01:10:40.388Z,33.95
2022-09-12T01:12:43.048Z,34.33
2022-09-12T01:14:44.907Z,34.63
2022-09-12T01:16:47.738Z,37.35
2022-09-12T01:19:02.585Z,38.33
2022-09-12T01:21:11.720Z,37.55
2022-09-12T01:23:19.203Z,37.33
2022-09-12T01:25:32.152Z,36.95
2022-09-12T01:27:39.794Z,37.10
2022-09-12T01:29:48.277Z,36.22
2022-09-12T01:32:01.745Z,37.03
2022-09-12T01:34:11.146Z,37.08
2022-09-12T01:36:15.389Z,36.05
2022-09-12T01:38:34.521Z,35.92
2022-09-12T01:40:49.165Z,36.33
2022-09-12T01:42:56.787Z,36.97
2022-09-12T01:45:11.808Z,36.80
2022-09-12T01:47:27.805Z,35.78
2022-09-12T01:49:34.175Z,35.75
2022-09-12T01:51:42.733Z,36.65
2022-09-12T01:53:51.947Z,35.75
2022-09-12T01:56:03.648Z,35.72
2022-09-12T01:58:09.784Z,35.90
2022-09-12T02:00:12.254Z,37.28
2022-09-12T02:02:17.748Z,37.70
2022-09-12T02:04:22.598Z,38.00
2022-09-12T02:06:47.446Z,37.33
2022-09-12T02:08:53.887Z,35.50
2022-09-12T02:10:59.430Z,37.72
2022-09-12T02:13:06.760Z,35.42
2022-09-12T02:15:09.663Z,37.30
2022-09-12T02:17:16.663Z,37.33
2022-09-12T02:19:21.262Z,34.67
2022-09-12T02:21:24.246Z,36.15
2022-09-12T02:23:29.210Z,35.80
2022-09-12T02:25:30.981Z,36.58
2022-09-12T02:27:45.025Z,35.10
2022-09-12T02:29:46.677Z,35.30
2022-09-12T02:31:50.958Z,35.15
2022-09-12T02:34:28.864Z,36.42
2022-09-12T02:36:50.083Z,35.55
2022-09-12T02:38:51.745Z,34.97
2022-09-12T02:40:53.419Z,34.90
2022-09-12T02:42:55.237Z,34.97
2022-09-12T02:44:57.197Z,34.67
2022-09-12T02:47:06.106Z,34.05
2022-09-12T02:49:09.405Z,33.40
2022-09-12T02:51:11.865Z,31.35
2022-09-12T02:53:13.620Z,32.45
2022-09-12T02:55:16.220Z,31.20
2022-09-12T02:57:22.620Z,31.38
2022-09-12T02:59:25.346Z,31.20
2022-09-12T03:01:37.464Z,31.95
2022-09-12T03:03:45.067Z,31.35
2022-09-12T03:05:58.097Z,31.05
2022-09-12T03:08:07.065Z,31.08
2022-09-12T03:10:14.876Z,29.87
2022-09-12T03:12:21.487Z,29.83
2022-09-12T03:14:29.071Z,30.17
2022-09-12T03:16:58.266Z,29.13
2022-09-12T03:19:30.697Z,29.42
2022-09-12T03:22:09.806Z,28.52
2022-09-12T03:24:16.106Z,22.67
2022-09-12T03:26:23.610Z,28.83
2022-09-12T03:28:25.823Z,29.42
2022-09-12T03:30:27.673Z,28.45
2022-09-12T03:32:41.513Z,30.85
2022-09-12T03:34:43.046Z,29.52
2022-09-12T03:36:44.591Z,30.17
2022-09-12T03:38:46.206Z,29.60
2022-09-12T03:40:51.357Z,30.20
2022-09-12T03:42:55.617Z,28.80
2022-09-12T03:44:57.138Z,29.13
2022-09-12T03:46:58.647Z,28.23
2022-09-12T03:49:00.178Z,30.00
2022-09-12T03:51:03.460Z,29.83
2022-09-12T03:53:05.063Z,30.30
2022-09-12T03:55:07.021Z,31.88
2022-09-12T03:57:08.542Z,32.13
2022-09-12T03:59:10.078Z,30.08
2022-09-12T04:01:14.127Z,31.15
2022-09-12T04:03:15.693Z,31.58
2022-09-12T04:05:17.208Z,29.88
2022-09-12T04:07:18.747Z,30.42
2022-09-12T04:09:20.240Z,31.45
2022-09-12T04:11:22.451Z,30.33
2022-09-12T04:13:24.079Z,31.73
2022-09-12T04:15:25.658Z,32.17
2022-09-12T04:17:27.163Z,33.08
2022-09-12T04:19:28.739Z,32.88
2022-09-12T04:21:31.009Z,34.95
2022-09-12T04:23:32.770Z,33.55
2022-09-12T04:25:34.625Z,34.40
2022-09-12T04:27:36.147Z,34.50
2022-09-12T04:29:38.083Z,34.00
2022-09-12T04:31:39.585Z,31.95
2022-09-12T04:33:41.445Z,32.85
2022-09-12T04:35:43.106Z,33.45
2022-09-12T04:37:44.598Z,32.78
2022-09-12T04:39:46.149Z,31.33
2022-09-12T04:41:47.751Z,30.17
2022-09-12T04:43:58.211Z,31.20
2022-09-12T04:46:05.568Z,30.60
2022-09-12T04:48:07.116Z,30.80
2022-09-12T04:50:08.954Z,29.92
2022-09-12T04:52:10.452Z,31.52
2022-09-12T04:54:15.275Z,33.95
2022-09-12T04:56:17.195Z,33.10
2022-09-12T04:58:18.678Z,33.33
2022-09-12T05:00:20.612Z,34.70
2022-09-12T05:02:22.261Z,34.85
2022-09-12T05:04:24.294Z,35.25
2022-09-12T05:06:31.195Z,35.00
2022-09-12T05:08:33.418Z,35.78
2022-09-12T05:10:34.977Z,37.90
2022-09-12T05:12:37.005Z,38.45
2022-09-12T05:14:38.525Z,34.95
2022-09-12T05:16:41.046Z,39.72
2022-09-12T05:18:44.353Z,43.00
2022-09-12T05:20:45.924Z,45.03
2022-09-12T05:22:47.433Z,43.58
2022-09-12T05:24:50.729Z,44.25
2022-09-12T05:26:59.761Z,43.45
2022-09-12T05:29:01.272Z,45.70
2022-09-12T05:31:07.059Z,46.15
2022-09-12T05:33:08.551Z,44.72
2022-09-12T05:35:10.129Z,43.83
2022-09-12T05:37:11.612Z,41.33
2022-09-12T05:39:13.128Z,43.75
2022-09-12T05:41:24.241Z,42.67
2022-09-12T05:43:26.454Z,37.92
2022-09-12T05:45:27.972Z,45.63
2022-09-12T05:47:29.496Z,41.10
2022-09-12T05:49:31.020Z,39.53
2022-09-12T05:51:34.739Z,43.80
2022-09-12T05:53:37.419Z,43.10
2022-09-12T05:55:38.959Z,42.33
2022-09-12T05:57:45.887Z,42.95
2022-09-12T05:59:47.700Z,40.85
2022-09-12T06:01:49.343Z,41.38
2022-09-12T06:03:52.626Z,36.33
2022-09-12T06:05:54.403Z,31.77
2022-09-12T06:07:55.919Z,38.47
2022-09-12T06:09:59.269Z,38.03
2022-09-12T06:12:00.760Z,37.22
2022-09-12T06:14:02.313Z,34.67
2022-09-12T06:16:06.268Z,38.97
2022-09-12T06:18:07.785Z,37.65
2022-09-12T06:20:09.469Z,36.25
2022-09-12T06:22:11.439Z,36.70
2022-09-12T06:24:13.227Z,33.17
2022-09-12T06:26:16.757Z,32.75
2022-09-12T06:28:18.272Z,25.52
2022-09-12T06:30:24.760Z,28.92
2022-09-12T06:32:30.375Z,26.38
2022-09-12T06:34:31.942Z,26.98
2022-09-12T06:36:39.690Z,22.13
2022-09-12T06:38:41.209Z,20.88
2022-09-12T06:40:46.433Z,19.35
2022-09-12T06:42:48.662Z,20.15
2022-09-12T06:44:50.578Z,19.58
2022-09-12T06:46:53.716Z,15.50
2022-09-12T06:48:59.730Z,12.35
2022-09-12T06:51:03.875Z,12.65
2022-09-12T06:53:05.386Z,12.40
2022-09-12T06:55:07.433Z,12.15
2022-09-12T06:57:08.997Z,11.98
2022-09-12T06:59:10.558Z,11.32
2022-09-12T07:01:15.202Z,9.18
2022-09-12T07:03:16.838Z,9.48
2022-09-12T07:05:18.421Z,7.97
2022-09-12T07:07:20.175Z,7.97
2022-09-12T07:09:21.691Z,8.68
2022-09-12T07:11:25.621Z,8.60
2022-09-12T07:13:27.509Z,8.20
2022-09-12T07:15:29.042Z,7.00
2022-09-12T07:17:30.705Z,7.78
2022-09-12T07:19:32.190Z,7.22
2022-09-12T07:21:36.521Z,8.02
2022-09-12T07:23:38.411Z,7.47
2022-09-12T07:25:40.002Z,6.80
2022-09-12T07:27:41.487Z,7.47
2022-09-12T07:29:44.334Z,6.28
2022-09-12T07:31:46.036Z,5.93
2022-09-12T07:33:51.177Z,5.22
2022-09-12T07:35:55.301Z,4.82
2022-09-12T07:37:56.847Z,4.57
2022-09-12T07:39:59.131Z,5.15
2022-09-12T07:42:00.715Z,3.80
2022-09-12T07:44:03.804Z,5.15
2022-09-12T07:46:05.596Z,4.82
2022-09-12T07:48:07.718Z,5.88
2022-09-12T07:50:09.547Z,6.13
2022-09-12T07:52:11.067Z,5.55
2022-09-12T07:54:12.616Z,4.05
2022-09-12T07:56:14.128Z,3.40
2022-09-12T07:58:15.635Z,3.45
2022-09-12T08:00:17.922Z,3.20
2022-09-12T08:02:19.676Z,4.43
2022-09-12T08:04:21.268Z,5.13
2022-09-12T08:06:24.293Z,4.60
2022-09-12T08:08:25.816Z,4.30
2022-09-12T08:10:27.555Z,4.90
2022-09-12T08:12:29.257Z,4.45
2022-09-12T08:14:30.929Z,5.65
2022-09-12T08:16:33.135Z,4.60
2022-09-12T08:18:35.711Z,4.07
2022-09-12T08:20:37.528Z,3.78
2022-09-12T08:22:40.755Z,3.10
2022-09-12T08:24:42.379Z,3.05
2022-09-12T08:26:43.903Z,2.92
2022-09-12T08:28:46.320Z,3.00
2022-09-12T08:30:47.874Z,2.85
2022-09-12T08:32:49.418Z,3.03
2022-09-12T08:34:50.953Z,2.83
2022-09-12T08:36:54.346Z,3.20
2022-09-12T08:38:59.857Z,3.17
2022-09-12T08:41:31.403Z,2.88
2022-09-12T08:43:56.718Z,3.45
2022-09-12T08:46:14.920Z,2.90
2022-09-12T08:48:16.460Z,2.80
2022-09-12T08:50:20.205Z,2.15
2022-09-12T08:52:27.191Z,2.58
2022-09-12T08:54:29.698Z,2.42
2022-09-12T08:56:35.663Z,2.50
2022-09-12T08:58:43.368Z,2.53
2022-09-12T09:00:56.707Z,2.25
2022-09-12T09:03:04.808Z,2.10
2022-09-12T09:05:37.920Z,2.50
2022-09-12T09:08:16.498Z,1.17
2022-09-12T09:10:47.073Z,1.80
2022-09-12T09:12:51.513Z,2.40
2022-09-12T09:15:21.395Z,2.10
2022-09-12T09:19:31.205Z,2.00
2022-09-12T09:21:39.893Z,2.30
2022-09-12T09:23:46.163Z,1.73
2022-09-12T09:25:50.748Z,5.03
2022-09-12T09:27:58.749Z,9.07
2022-09-12T09:30:00.909Z,18.08
2022-09-12T09:32:04.729Z,5.93
2022-09-12T09:34:14.785Z,1.80
2022-09-12T09:36:50.641Z,1.58
2022-09-12T09:39:13.285Z,2.03
2022-09-12T09:41:17.894Z,2.00
2022-09-12T09:43:24.273Z,2.17
2022-09-12T09:45:29.170Z,1.75
2022-09-12T09:47:30.739Z,1.50
2022-09-12T09:49:34.360Z,2.00
2022-09-12T09:51:38.381Z,1.73
2022-09-12T09:53:50.558Z,1.60
2022-09-12T09:55:53.897Z,1.35
2022-09-12T09:57:55.379Z,1.65
2022-09-12T09:59:56.886Z,1.05
2022-09-12T10:02:04.025Z,1.20
2022-09-12T10:04:05.677Z,1.40
2022-09-12T10:06:22.867Z,1.67
2022-09-12T10:08:26.778Z,2.20
2022-09-12T10:10:28.478Z,1.40
2022-09-12T10:12:29.982Z,1.40
2022-09-12T10:14:39.777Z,1.38
2022-09-12T10:16:54.214Z,1.63
2022-09-12T10:19:01.604Z,1.30
2022-09-12T10:21:13.761Z,1.42
2022-09-12T10:23:31.094Z,1.63
2022-09-12T10:25:32.780Z,1.27
2022-09-12T10:27:35.811Z,0.93
2022-09-12T10:30:15.660Z,1.45
2022-09-12T10:34:42.375Z,1.20
2022-09-12T10:36:43.887Z,1.10
2022-09-12T10:38:51.204Z,1.40
2022-09-12T10:41:03.882Z,1.10
2022-09-12T10:43:19.349Z,1.08
2022-09-12T10:45:26.446Z,1.30
2022-09-12T10:47:31.071Z,1.20
2022-09-12T10:49:38.147Z,1.65
2022-09-12T10:51:39.693Z,2.78
2022-09-12T10:53:43.681Z,1.63
2022-09-12T10:56:02.143Z,1.35
2022-09-12T10:58:21.786Z,1.40
2022-09-12T11:00:28.001Z,1.70
2022-09-12T11:02:33.340Z,1.60
2022-09-12T11:05:08.016Z,1.13
2022-09-12T11:07:31.125Z,1.45
2022-09-12T11:09:39.232Z,1.13
2022-09-12T11:11:59.052Z,1.40
2022-09-12T11:14:09.721Z,1.38
2022-09-12T11:16:24.397Z,1.35
2022-09-12T11:18:56.648Z,1.30
2022-09-12T11:21:12.727Z,1.25
2022-09-12T11:23:17.202Z,1.48
2022-09-12T11:25:40.477Z,1.45
2022-09-12T11:28:04.433Z,1.08
2022-09-12T11:30:11.694Z,1.48
2022-09-12T11:32:28.588Z,1.10
2022-09-12T11:34:53.438Z,1.35
2022-09-12T11:37:35.358Z,1.40
2022-09-12T11:39:40.623Z,1.17
2022-09-12T11:41:45.461Z,1.40
2022-09-12T11:43:52.956Z,1.40
2022-09-12T11:45:55.125Z,1.40
2022-09-12T11:48:00.753Z,1.13
2022-09-12T11:50:06.047Z,1.05
2022-09-12T11:52:14.800Z,1.10
2022-09-12T11:54:40.900Z,1.20
2022-09-12T11:56:46.368Z,1.20
2022-09-12T11:58:58.638Z,1.00
2022-09-12T12:01:16.189Z,1.23
2022-09-12T12:03:23.075Z,1.80
2022-09-12T12:05:43.193Z,1.20
2022-09-12T12:07:52.799Z,1.50
2022-09-12T12:09:55.156Z,1.48
2022-09-12T12:11:57.767Z,1.48
2022-09-12T12:14:04.885Z,1.40
2022-09-12T12:16:14.225Z,1.40
2022-09-12T12:18:26.177Z,1.40
2022-09-12T12:20:28.696Z,1.40
2022-09-12T12:22:31.421Z,1.30
2022-09-12T12:24:34.251Z,1.20
2022-09-12T12:26:57.436Z,1.23
2022-09-12T12:28:59.443Z,1.20
2022-09-12T12:31:02.151Z,1.58
2022-09-12T12:33:15.987Z,1.58
2022-09-12T12:35:36.500Z,1.38
2022-09-12T12:37:41.099Z,1.10
2022-09-12T12:39:42.709Z,1.45
2022-09-12T12:41:45.425Z,1.20
2022-09-12T12:43:57.621Z,1.40
2022-09-12T12:46:02.154Z,1.45
2022-09-12T12:48:11.889Z,1.50
2022-09-12T12:50:16.344Z,1.38
2022-09-12T12:52:18.575Z,1.50
2022-09-12T12:54:48.244Z,1.90
2022-09-12T12:56:51.742Z,1.33
2022-09-12T12:59:01.543Z,1.33
2022-09-12T13:01:13.330Z,1.55
2022-09-12T13:03:28.551Z,1.20
2022-09-12T13:05:41.820Z,1.13
2022-09-12T13:07:44.062Z,1.20
2022-09-12T13:09:48.222Z,1.50
2022-09-12T13:12:02.573Z,1.17
2022-09-12T13:14:46.874Z,1.30
2022-09-12T13:16:56.862Z,1.60
2022-09-12T13:21:10.365Z,1.30
2022-09-12T13:23:29.148Z,1.02
2022-09-12T13:25:35.762Z,1.42
2022-09-12T13:27:37.431Z,1.20
2022-09-12T13:29:38.963Z,1.33
2022-09-12T13:31:43.171Z,1.55
2022-09-12T13:33:54.403Z,1.40
2022-09-12T13:36:26.663Z,2.03
2022-09-12T13:38:43.251Z,1.70
2022-09-12T13:41:01.087Z,1.70
2022-09-12T13:43:15.231Z,1.60
2022-09-12T13:45:25.040Z,1.80
2022-09-12T13:47:35.278Z,1.70
2022-09-12T13:49:40.522Z,1.77
2022-09-12T13:51:43.416Z,1.50
2022-09-12T13:53:46.436Z,1.60
2022-09-12T13:55:57.898Z,1.48
2022-09-12T13:58:05.332Z,1.80
2022-09-12T14:00:20.243Z,1.75
2022-09-12T14:02:24.282Z,1.40
2022-09-12T14:04:44.816Z,1.60
2022-09-12T14:06:51.490Z,1.95
2022-09-12T14:08:56.926Z,1.40
2022-09-12T14:10:58.493Z,1.80
2022-09-12T14:13:01.534Z,1.65
2022-09-12T14:15:03.575Z,1.70
2022-09-12T14:17:33.644Z,1.90
2022-09-12T14:19:35.643Z,1.70
2022-09-12T14:21:37.358Z,1.70
2022-09-12T14:23:42.924Z,1.58
2022-09-12T14:25:47.916Z,1.65
2022-09-12T14:27:54.058Z,1.60
2022-09-12T14:30:23.294Z,1.40
2022-09-12T14:32:25.075Z,1.40
2022-09-12T14:34:26.616Z,1.70
2022-09-12T14:36:31.504Z,1.50
2022-09-12T14:38:41.091Z,1.75
2022-09-12T14:40:48.611Z,1.50
2022-09-12T14:42:52.665Z,1.80
2022-09-12T14:45:00.280Z,1.27
2022-09-12T14:47:15.103Z,1.63
2022-09-12T14:49:34.712Z,1.70
2022-09-12T14:51:45.411Z,1.60
2022-09-12T14:53:50.382Z,1.83
2022-09-12T14:56:13.522Z,1.70
2022-09-12T14:58:20.833Z,1.70
2022-09-12T15:00:24.611Z,1.50
2022-09-12T15:02:26.771Z,1.80
2022-09-12T15:04:52.349Z,2.28
2022-09-12T15:06:53.908Z,1.70
2022-09-12T15:08:57.909Z,1.50
2022-09-12T15:10:59.994Z,1.70
2022-09-12T15:13:16.920Z,1.42
2022-09-12T15:15:20.191Z,1.45
2022-09-12T15:17:21.795Z,1.40
2022-09-12T15:19:23.312Z,1.38
2022-09-12T15:21:24.848Z,1.30
2022-09-12T15:23:31.158Z,1.50
2022-09-12T15:25:32.703Z,1.25
2022-09-12T15:27:34.220Z,1.27
2022-09-12T15:29:35.727Z,1.23
2022-09-12T15:31:37.258Z,1.58
2022-09-12T15:33:38.770Z,1.60
2022-09-12T15:35:40.373Z,1.50
2022-09-12T15:37:42.285Z,1.40
2022-09-12T15:39:44.294Z,1.70
2022-09-12T15:41:47.850Z,1.58
2022-09-12T15:43:50.261Z,1.30
2022-09-12T15:45:52.405Z,1.48
2022-09-12T15:47:54.627Z,1.55
2022-09-12T15:49:56.134Z,1.60
2022-09-12T15:51:58.109Z,1.30
2022-09-12T15:54:00.445Z,1.75
2022-09-12T15:56:02.215Z,2.20
2022-09-12T15:58:07.006Z,4.45
2022-09-12T16:00:09.750Z,1.70
2022-09-12T16:02:11.825Z,1.83
2022-09-12T16:04:23.574Z,1.65
2022-09-12T16:06:25.135Z,1.90
2022-09-12T16:08:27.391Z,2.30
2022-09-12T16:10:30.445Z,1.85
2022-09-12T16:12:32.109Z,2.55
2022-09-12T16:14:33.599Z,2.08
2022-09-12T16:16:35.728Z,2.40
2022-09-12T16:18:39.817Z,3.13
2022-09-12T16:20:41.467Z,3.33
2022-09-12T16:22:43.502Z,4.32
2022-09-12T16:24:45.178Z,6.70
2022-09-12T16:26:46.793Z,4.47
2022-09-12T16:28:48.482Z,5.25
2022-09-12T16:31:01.237Z,3.65
2022-09-12T16:33:03.004Z,3.88
2022-09-12T16:35:04.905Z,2.80
2022-09-12T16:37:06.482Z,2.75
2022-09-12T16:39:08.009Z,1.92
2022-09-12T16:41:10.084Z,2.58
2022-09-12T16:43:11.741Z,2.03
2022-09-12T16:45:13.432Z,1.40
2022-09-12T16:47:14.961Z,2.25
2022-09-12T16:49:16.633Z,3.33
2022-09-12T16:51:22.722Z,3.65
2022-09-12T16:53:24.848Z,2.22
2022-09-12T16:55:31.387Z,2.20
2022-09-12T16:57:34.034Z,6.82
2022-09-12T16:59:35.586Z,6.97
2022-09-12T17:01:37.124Z,14.43
2022-09-12T17:03:39.029Z,9.55
2022-09-12T17:05:41.179Z,31.33
2022-09-12T17:07:42.699Z,11.20
2022-09-12T17:09:47.764Z,8.43
2022-09-12T17:11:50.376Z,21.73
2022-09-12T17:14:04.562Z,32.03
2022-09-12T17:16:11.695Z,29.20
2022-09-12T17:18:13.359Z,22.88
2022-09-12T17:20:17.297Z,32.05
2022-09-12T17:22:18.930Z,20.58
2022-09-12T17:24:20.904Z,30.23
2022-09-12T17:26:22.588Z,24.48
2022-09-12T17:28:24.127Z,16.98
2022-09-12T17:30:25.649Z,20.08
2022-09-12T17:32:27.417Z,20.92
2022-09-12T17:34:29.660Z,18.83
2022-09-12T17:36:32.187Z,15.65
2022-09-12T17:38:35.434Z,19.45
2022-09-12T17:40:56.007Z,18.52
2022-09-12T17:42:58.649Z,18.65
2022-09-12T17:45:00.221Z,20.10
2022-09-12T17:47:02.419Z,18.30
2022-09-12T17:49:08.263Z,18.20
2022-09-12T17:51:11.989Z,21.77
2022-09-12T17:53:13.587Z,20.67
2022-09-12T17:55:15.445Z,22.30
2022-09-12T17:57:17.069Z,21.15
2022-09-12T17:59:20.735Z,29.38
2022-09-12T18:02:00.606Z,35.38
2022-09-12T18:06:04.066Z,24.77
2022-09-12T18:08:05.578Z,19.90
2022-09-12T18:10:08.040Z,16.50
2022-09-12T18:12:10.132Z,14.35
2022-09-12T18:14:14.132Z,13.25
2022-09-12T18:16:16.235Z,14.07
2022-09-12T18:18:17.790Z,14.15
2022-09-12T18:20:19.315Z,17.10
2022-09-12T18:22:20.998Z,20.35
2022-09-12T18:24:22.789Z,22.00
2022-09-12T18:26:25.076Z,18.33
2022-09-12T18:28:26.962Z,18.95
2022-09-12T18:30:30.249Z,18.25
2022-09-12T18:32:31.973Z,22.60
2022-09-12T18:34:33.511Z,24.58
2022-09-12T18:36:35.188Z,20.40
2022-09-12T18:38:37.612Z,21.45
2022-09-12T18:40:39.216Z,21.55
2022-09-12T18:42:40.883Z,20.40
2022-09-12T18:44:42.536Z,19.88
2022-09-12T18:46:44.130Z,19.25
2022-09-12T18:48:46.397Z,20.30
2022-09-12T18:50:48.175Z,21.92
2022-09-12T18:52:55.684Z,19.75
2022-09-12T18:55:00.675Z,10.90
2022-09-12T18:57:02.222Z,7.93
2022-09-12T18:59:05.640Z,6.85
2022-09-12T19:01:18.891Z,6.97
2022-09-12T19:03:20.607Z,7.18
2022-09-12T19:05:22.167Z,9.27
2022-09-12T19:07:23.663Z,8.70
2022-09-12T19:09:25.234Z,8.80
2022-09-12T19:11:28.780Z,9.98
2022-09-12T19:13:30.408Z,9.48
2022-09-12T19:15:32.044Z,13.50
2022-09-12T19:17:33.558Z,14.82
2022-09-12T19:19:37.633Z,22.95
2022-09-12T19:21:42.677Z,26.27
2022-09-12T19:23:44.807Z,22.90
2022-09-12T19:25:58.763Z,19.90
2022-09-12T19:28:00.255Z,19.60
2022-09-12T19:30:01.911Z,17.80
2022-09-12T19:32:03.530Z,12.20
2022-09-12T19:34:06.486Z,10.80
2022-09-12T19:36:27.682Z,12.90
2022-09-12T19:38:32.551Z,16.10
2022-09-12T19:40:34.170Z,18.70
2022-09-12T19:42:35.694Z,24.25
2022-09-12T19:44:37.288Z,22.67
2022-09-12T19:46:39.032Z,17.40
2022-09-12T19:48:40.718Z,13.75
2022-09-12T19:50:42.236Z,14.38
2022-09-12T19:52:43.824Z,13.48
2022-09-12T19:54:45.632Z,13.38
2022-09-12T19:56:47.240Z,15.05
2022-09-12T19:58:55.157Z,15.98
2022-09-12T20:01:08.489Z,15.63
2022-09-12T20:03:10.065Z,15.60
2022-09-12T20:05:11.572Z,15.75
2022-09-12T20:07:13.272Z,18.35
2022-09-12T20:09:14.868Z,45.90
2022-09-12T20:11:19.114Z,30.95
2022-09-12T20:13:20.663Z,31.98
2022-09-12T20:15:22.271Z,29.30
2022-09-12T20:17:23.817Z,30.77
2022-09-12T20:19:25.339Z,33.33
2022-09-12T20:21:32.278Z,28.65
2022-09-12T20:23:33.911Z,34.20
2022-09-12T20:25:35.432Z,43.50
2022-09-12T20:27:36.966Z,44.80
2022-09-12T20:29:38.496Z,52.13
2022-09-12T20:31:41.844Z,55.45
2022-09-12T20:33:45.822Z,43.15
2022-09-12T20:35:49.188Z,28.83
2022-09-12T20:37:50.693Z,24.92
2022-09-12T20:39:52.284Z,26.25
2022-09-12T20:41:53.889Z,26.40
2022-09-12T20:43:56.441Z,22.63
2022-09-12T20:45:58.266Z,22.65
2022-09-12T20:47:59.837Z,24.75
2022-09-12T20:50:01.375Z,26.23
2022-09-12T20:52:03.005Z,31.65
2022-09-12T20:54:06.053Z,30.58
2022-09-12T20:56:07.830Z,25.92
2022-09-12T20:58:09.328Z,26.73
2022-09-12T21:00:11.553Z,25.73
2022-09-12T21:02:14.717Z,23.40
2022-09-12T21:04:16.590Z,21.85
2022-09-12T21:06:18.367Z,21.27
2022-09-12T21:08:19.867Z,19.88
2022-09-12T21:10:21.358Z,23.05
2022-09-12T21:12:23.374Z,24.88
2022-09-12T21:14:24.898Z,25.55
2022-09-12T21:16:26.544Z,26.42
2022-09-12T21:18:29.007Z,25.98
2022-09-12T21:20:31.270Z,25.05
2022-09-12T21:22:32.777Z,22.02
2022-09-12T21:24:34.292Z,18.35
2022-09-12T21:26:35.810Z,15.50
2022-09-12T21:28:37.364Z,14.00
2022-09-12T21:30:39.000Z,15.32
2022-09-12T21:32:40.864Z,14.90
2022-09-12T21:34:42.510Z,16.50
2022-09-12T21:36:44.017Z,14.98
2022-09-12T21:38:45.552Z,16.52
2022-09-12T21:40:47.712Z,17.33
2022-09-12T21:42:49.843Z,17.27
2022-09-12T21:44:51.324Z,17.60
2022-09-12T21:46:52.864Z,16.63
2022-09-12T21:48:54.413Z,16.95
2022-09-12T21:50:56.283Z,16.98
2022-09-12T21:52:57.889Z,16.08
2022-09-12T21:54:59.398Z,13.45
2022-09-12T21:57:01.439Z,11.45
2022-09-12T21:59:02.945Z,10.82
2022-09-12T22:01:05.994Z,12.07
2022-09-12T22:03:10.503Z,12.73
2022-09-12T22:05:12.325Z,14.88
2022-09-12T22:07:13.844Z,13.32
2022-09-12T22:09:16.937Z,12.57
2022-09-12T22:11:20.620Z,12.30
2022-09-12T22:13:22.175Z,10.63
2022-09-12T22:15:39.924Z,11.32
2022-09-12T22:17:41.879Z,10.35
2022-09-12T22:19:43.383Z,9.60
2022-09-12T22:22:03.506Z,10.10
2022-09-12T22:24:23.559Z,10.65
2022-09-12T22:26:25.476Z,9.77
2022-09-12T22:28:27.129Z,10.75
2022-09-12T22:30:28.727Z,10.98
2022-09-12T22:32:30.253Z,10.57
2022-09-12T22:34:31.868Z,11.10
2022-09-12T22:36:36.966Z,11.18
2022-09-12T22:38:40.377Z,10.95
2022-09-12T22:40:41.875Z,10.68
2022-09-12T22:42:43.468Z,10.75
2022-09-12T22:44:44.961Z,10.90
2022-09-12T22:46:46.501Z,10.93
2022-09-12T22:48:48.268Z,12.57
2022-09-12T22:50:50.318Z,11.38
2022-09-12T22:52:52.571Z,12.07
2022-09-12T22:54:54.097Z,11.68
2022-09-12T22:56:55.712Z,12.13
2022-09-12T22:58:57.261Z,10.68
2022-09-12T23:00:58.860Z,9.98
2022-09-12T23:03:00.516Z,24.05
2022-09-12T23:05:02.662Z,17.85
2022-09-12T23:07:04.228Z,15.30
2022-09-12T23:09:05.887Z,15.07
2022-09-12T23:11:15.493Z,11.88
2022-09-12T23:13:16.989Z,19.02
2022-09-12T23:15:18.524Z,17.60
2022-09-12T23:17:20.060Z,16.65
2022-09-12T23:19:21.558Z,14.23
2022-09-12T23:21:23.112Z,13.70
2022-09-12T23:23:24.767Z,12.30
2022-09-12T23:25:26.449Z,12.75
2022-09-12T23:27:28.430Z,12.90
2022-09-12T23:29:30.027Z,16.90
2022-09-12T23:31:33.130Z,15.52
2022-09-12T23:33:34.721Z,13.95
2022-09-12T23:35:36.718Z,12.95
2022-09-12T23:37:38.226Z,12.02
2022-09-12T23:39:39.796Z,12.95
2022-09-12T23:41:41.394Z,15.32
2022-09-12T23:43:45.273Z,14.45
2022-09-12T23:45:46.851Z,13.75
2022-09-12T23:47:48.362Z,10.60
2022-09-12T23:49:49.890Z,10.75
2022-09-12T23:51:51.422Z,9.60
2022-09-12T23:53:52.944Z,8.35
2022-09-12T23:55:54.536Z,9.43
2022-09-12T23:57:56.089Z,9.40
2022-09-12T23:59:57.597Z,8.75
